OINN  Noshahr Airport

Add Bookmark

Iran

Status IATA
Operational NSH
Latitude Longitude
36° 39' 47" N 51° 27' 52" E
36.663300 51.464699
Local (DST + 5) UTC (GMT + 4)
Jan 30, 2015 05:26 Jan 30, 2015 13:56
Sunrise-Sunset Local UTC
Begin Civil Twilight 06:38 03:08
Sunrise 07:06 03:36
Sunset 05:28 13:58
End Civil Twilight 05:55 14:25

Current Weather

METAR Observed MVFR
OINN 301300Z 12006KT 6000 BKN015 BKN080 12/09 Q1015 Fri, Jan 30, 2015 @ 13:00 UTC
(56 Minutes ago)
Marginal Visual Flight Rules
Wind Visibility Clouds Conditions
120° at 6 knots (11 kph) 6000 meters
  • Broken at 1,500' AGL
  • Broken at 8,000' AGL
  • No significant weather
Temperatures Readings Precipitation
Current Temp 12°C (54°F)
Dewpoint 9°C (48°F)
Humidity 82%
Altimeter 29.97"Hg
Sea Level Pressure 1015mb
None Recorded

Additional weather within a 92.6km radius of OINN

Map ICAO Location
OINR 75km W (292°)

24 Hour Weather History

Loading
-

24 Hour Weather Graphs

Loading
-

CheckWX.com is intended as a tool to help pilots better visualize weather data. It is not intended as a substitute for an official weather briefing obtained from a Flight Service Station. CheckWX.com does not meet the FAA requirements for an official pre-flight weather briefing. Therefore, it's important that pilots still call and obtain an official FSS pre-flight weather briefing.